sensor_id;sensor_type;location;lat;lon;timestamp;temperature;humidity
14517;DHT22;7344;50.864;4.362;2023-04-01T00:02:17;10.30;99.90
14517;DHT22;7344;50.864;4.362;2023-04-01T00:04:43;10.30;99.90
14517;DHT22;7344;50.864;4.362;2023-04-01T00:07:10;10.30;99.90
14517;DHT22;7344;50.864;4.362;2023-04-01T00:09:36;10.30;99.90
14517;DHT22;7344;50.864;4.362;2023-04-01T00:12:02;10.30;99.90
14517;DHT22;7344;50.864;4.362;2023-04-01T00:14:28;10.30;99.90
14517;DHT22;7344;50.864;4.362;2023-04-01T00:16:55;10.30;99.90
14517;DHT22;7344;50.864;4.362;2023-04-01T00:19:20;10.30;99.90
14517;DHT22;7344;50.864;4.362;2023-04-01T00:21:46;10.30;99.90
14517;DHT22;7344;50.864;4.362;2023-04-01T00:24:13;10.30;99.90
14517;DHT22;7344;50.864;4.362;2023-04-01T00:26:39;10.30;99.90
14517;DHT22;7344;50.864;4.362;2023-04-01T00:29:04;10.30;99.90
14517;DHT22;7344;50.864;4.362;2023-04-01T00:31:30;10.20;99.90
14517;DHT22;7344;50.864;4.362;2023-04-01T00:33:56;10.20;99.90
14517;DHT22;7344;50.864;4.362;2023-04-01T00:36:22;10.20;99.90
14517;DHT22;7344;50.864;4.362;2023-04-01T00:38:49;10.30;99.90
14517;DHT22;7344;50.864;4.362;2023-04-01T00:41:16;10.20;99.90
14517;DHT22;7344;50.864;4.362;2023-04-01T00:43:44;10.20;99.90
14517;DHT22;7344;50.864;4.362;2023-04-01T00:46:10;10.20;99.90
14517;DHT22;7344;50.864;4.362;2023-04-01T00:48:39;10.20;99.90
14517;DHT22;7344;50.864;4.362;2023-04-01T00:51:15;10.20;99.90
14517;DHT22;7344;50.864;4.362;2023-04-01T00:53:44;10.20;99.90
14517;DHT22;7344;50.864;4.362;2023-04-01T00:56:16;10.20;99.90
14517;DHT22;7344;50.864;4.362;2023-04-01T00:58:46;10.10;99.90
14517;DHT22;7344;50.864;4.362;2023-04-01T01:01:13;10.20;99.90
14517;DHT22;7344;50.864;4.362;2023-04-01T01:03:39;10.10;99.90
14517;DHT22;7344;50.864;4.362;2023-04-01T01:09:19;10.20;99.90
14517;DHT22;7344;50.864;4.362;2023-04-01T01:11:54;10.20;99.90
14517;DHT22;7344;50.864;4.362;2023-04-01T01:16:59;10.20;99.90
14517;DHT22;7344;50.864;4.362;2023-04-01T01:22:45;10.30;99.90
14517;DHT22;7344;50.864;4.362;2023-04-01T01:25:40;10.30;99.90
14517;DHT22;7344;50.864;4.362;2023-04-01T01:31:13;10.30;99.90
14517;DHT22;7344;50.864;4.362;2023-04-01T01:36:42;10.20;99.90
14517;DHT22;7344;50.864;4.362;2023-04-01T01:39:12;10.20;99.90
14517;DHT22;7344;50.864;4.362;2023-04-01T01:41:39;10.20;99.90
14517;DHT22;7344;50.864;4.362;2023-04-01T01:44:08;10.10;99.90
14517;DHT22;7344;50.864;4.362;2023-04-01T01:46:35;10.10;99.90
14517;DHT22;7344;50.864;4.362;2023-04-01T01:49:03;10.20;99.90
14517;DHT22;7344;50.864;4.362;2023-04-01T01:51:30;10.20;99.90
14517;DHT22;7344;50.864;4.362;2023-04-01T01:53:56;10.20;99.90
14517;DHT22;7344;50.864;4.362;2023-04-01T01:56:23;10.20;99.90
14517;DHT22;7344;50.864;4.362;2023-04-01T01:58:58;10.20;99.90
14517;DHT22;7344;50.864;4.362;2023-04-01T02:01:28;10.10;99.90
14517;DHT22;7344;50.864;4.362;2023-04-01T02:03:55;10.10;99.90
14517;DHT22;7344;50.864;4.362;2023-04-01T02:06:25;10.10;99.90
14517;DHT22;7344;50.864;4.362;2023-04-01T02:08:59;10.20;99.90
14517;DHT22;7344;50.864;4.362;2023-04-01T02:11:37;10.20;99.90
14517;DHT22;7344;50.864;4.362;2023-04-01T02:14:05;10.20;99.90
14517;DHT22;7344;50.864;4.362;2023-04-01T02:19:18;10.10;99.90
14517;DHT22;7344;50.864;4.362;2023-04-01T02:21:50;10.10;99.90
14517;DHT22;7344;50.864;4.362;2023-04-01T02:24:18;10.10;99.90
14517;DHT22;7344;50.864;4.362;2023-04-01T02:26:46;10.10;99.90
14517;DHT22;7344;50.864;4.362;2023-04-01T02:29:12;10.00;99.90
14517;DHT22;7344;50.864;4.362;2023-04-01T02:31:39;10.10;99.90
14517;DHT22;7344;50.864;4.362;2023-04-01T02:34:05;10.00;99.90
14517;DHT22;7344;50.864;4.362;2023-04-01T02:36:31;10.00;99.90
14517;DHT22;7344;50.864;4.362;2023-04-01T02:38:58;10.00;99.90
14517;DHT22;7344;50.864;4.362;2023-04-01T02:41:28;10.00;99.90
14517;DHT22;7344;50.864;4.362;2023-04-01T02:43:53;9.80;99.90
14517;DHT22;7344;50.864;4.362;2023-04-01T02:46:19;9.90;99.90
14517;DHT22;7344;50.864;4.362;2023-04-01T02:48:44;9.90;99.90
14517;DHT22;7344;50.864;4.362;2023-04-01T02:51:10;9.90;99.90
14517;DHT22;7344;50.864;4.362;2023-04-01T02:53:36;9.90;99.90
14517;DHT22;7344;50.864;4.362;2023-04-01T02:56:01;9.90;99.90
14517;DHT22;7344;50.864;4.362;2023-04-01T02:58:27;9.90;99.90
14517;DHT22;7344;50.864;4.362;2023-04-01T03:00:52;9.90;99.90
14517;DHT22;7344;50.864;4.362;2023-04-01T03:03:18;9.90;99.90
14517;DHT22;7344;50.864;4.362;2023-04-01T03:05:44;9.90;99.90
14517;DHT22;7344;50.864;4.362;2023-04-01T03:08:09;9.90;99.90
14517;DHT22;7344;50.864;4.362;2023-04-01T03:10:35;9.90;99.90
14517;DHT22;7344;50.864;4.362;2023-04-01T03:13:01;9.90;99.90
14517;DHT22;7344;50.864;4.362;2023-04-01T03:15:26;10.00;99.90
14517;DHT22;7344;50.864;4.362;2023-04-01T03:17:52;10.00;99.90
14517;DHT22;7344;50.864;4.362;2023-04-01T03:20:17;9.90;99.90
14517;DHT22;7344;50.864;4.362;2023-04-01T03:22:43;10.00;99.90
14517;DHT22;7344;50.864;4.362;2023-04-01T03:25:10;10.00;99.90
14517;DHT22;7344;50.864;4.362;2023-04-01T03:27:35;10.00;99.90
14517;DHT22;7344;50.864;4.362;2023-04-01T03:30:03;10.00;99.90
14517;DHT22;7344;50.864;4.362;2023-04-01T03:32:28;9.90;99.90
14517;DHT22;7344;50.864;4.362;2023-04-01T03:34:54;9.90;99.90
14517;DHT22;7344;50.864;4.362;2023-04-01T03:37:20;10.00;99.90
14517;DHT22;7344;50.864;4.362;2023-04-01T03:39:45;10.00;99.90
14517;DHT22;7344;50.864;4.362;2023-04-01T03:42:12;10.00;99.90
14517;DHT22;7344;50.864;4.362;2023-04-01T03:44:37;10.00;99.90
14517;DHT22;7344;50.864;4.362;2023-04-01T03:47:03;10.10;99.90
14517;DHT22;7344;50.864;4.362;2023-04-01T03:49:29;10.10;99.90
14517;DHT22;7344;50.864;4.362;2023-04-01T03:51:54;10.00;99.90
14517;DHT22;7344;50.864;4.362;2023-04-01T03:54:20;10.10;99.90
14517;DHT22;7344;50.864;4.362;2023-04-01T03:56:46;10.10;99.90
14517;DHT22;7344;50.864;4.362;2023-04-01T03:59:12;10.10;99.90
14517;DHT22;7344;50.864;4.362;2023-04-01T04:01:38;10.10;99.90
14517;DHT22;7344;50.864;4.362;2023-04-01T04:04:04;10.10;99.90
14517;DHT22;7344;50.864;4.362;2023-04-01T04:06:30;10.10;99.90
14517;DHT22;7344;50.864;4.362;2023-04-01T04:08:56;10.10;99.90
14517;DHT22;7344;50.864;4.362;2023-04-01T04:11:22;10.10;99.90
14517;DHT22;7344;50.864;4.362;2023-04-01T04:13:47;10.20;99.90
14517;DHT22;7344;50.864;4.362;2023-04-01T04:16:14;10.10;99.90
14517;DHT22;7344;50.864;4.362;2023-04-01T04:18:40;10.10;99.90
14517;DHT22;7344;50.864;4.362;2023-04-01T04:21:06;10.10;99.90
14517;DHT22;7344;50.864;4.362;2023-04-01T04:23:32;10.00;99.90
14517;DHT22;7344;50.864;4.362;2023-04-01T04:26:07;10.00;99.90
14517;DHT22;7344;50.864;4.362;2023-04-01T04:28:33;9.90;99.90
14517;DHT22;7344;50.864;4.362;2023-04-01T04:31:00;9.90;99.90
14517;DHT22;7344;50.864;4.362;2023-04-01T04:33:26;9.80;99.90
14517;DHT22;7344;50.864;4.362;2023-04-01T04:35:55;9.90;99.90
14517;DHT22;7344;50.864;4.362;2023-04-01T04:38:21;9.90;99.90
14517;DHT22;7344;50.864;4.362;2023-04-01T04:40:46;9.80;99.90
14517;DHT22;7344;50.864;4.362;2023-04-01T04:43:14;9.80;99.90
14517;DHT22;7344;50.864;4.362;2023-04-01T04:45:40;9.90;99.90
14517;DHT22;7344;50.864;4.362;2023-04-01T04:48:10;9.80;99.90
14517;DHT22;7344;50.864;4.362;2023-04-01T04:50:40;9.80;99.90
14517;DHT22;7344;50.864;4.362;2023-04-01T04:53:05;9.90;99.90
14517;DHT22;7344;50.864;4.362;2023-04-01T04:55:31;9.80;99.90
14517;DHT22;7344;50.864;4.362;2023-04-01T04:57:57;9.90;99.90
14517;DHT22;7344;50.864;4.362;2023-04-01T05:00:22;9.80;99.90
14517;DHT22;7344;50.864;4.362;2023-04-01T05:02:48;9.80;99.90
14517;DHT22;7344;50.864;4.362;2023-04-01T05:05:13;9.80;99.90
14517;DHT22;7344;50.864;4.362;2023-04-01T05:07:39;9.90;99.90
14517;DHT22;7344;50.864;4.362;2023-04-01T05:10:05;9.90;99.90
14517;DHT22;7344;50.864;4.362;2023-04-01T05:12:31;9.90;99.90
14517;DHT22;7344;50.864;4.362;2023-04-01T05:15:02;9.90;99.90
14517;DHT22;7344;50.864;4.362;2023-04-01T05:17:28;9.90;99.90
14517;DHT22;7344;50.864;4.362;2023-04-01T05:19:53;9.90;99.90
14517;DHT22;7344;50.864;4.362;2023-04-01T05:22:19;9.90;99.90
14517;DHT22;7344;50.864;4.362;2023-04-01T05:24:45;9.90;99.90
14517;DHT22;7344;50.864;4.362;2023-04-01T05:27:11;9.90;99.90
14517;DHT22;7344;50.864;4.362;2023-04-01T05:29:36;9.90;99.90
14517;DHT22;7344;50.864;4.362;2023-04-01T05:32:02;9.80;99.90
14517;DHT22;7344;50.864;4.362;2023-04-01T05:34:27;9.80;99.90
14517;DHT22;7344;50.864;4.362;2023-04-01T05:36:53;9.80;99.90
14517;DHT22;7344;50.864;4.362;2023-04-01T05:39:19;9.80;99.90
14517;DHT22;7344;50.864;4.362;2023-04-01T05:41:44;9.80;99.90
14517;DHT22;7344;50.864;4.362;2023-04-01T05:44:12;9.90;99.90
14517;DHT22;7344;50.864;4.362;2023-04-01T05:46:37;9.90;99.90
14517;DHT22;7344;50.864;4.362;2023-04-01T05:49:03;9.80;99.90
14517;DHT22;7344;50.864;4.362;2023-04-01T05:51:28;9.80;99.90
14517;DHT22;7344;50.864;4.362;2023-04-01T05:53:54;9.90;99.90
14517;DHT22;7344;50.864;4.362;2023-04-01T05:56:20;9.80;99.90
14517;DHT22;7344;50.864;4.362;2023-04-01T05:58:51;9.80;99.90
14517;DHT22;7344;50.864;4.362;2023-04-01T06:01:17;9.80;99.90
14517;DHT22;7344;50.864;4.362;2023-04-01T06:03:44;9.80;99.90
14517;DHT22;7344;50.864;4.362;2023-04-01T06:06:30;9.90;99.90
14517;DHT22;7344;50.864;4.362;2023-04-01T06:09:16;9.90;99.90
14517;DHT22;7344;50.864;4.362;2023-04-01T06:12:11;9.80;99.90
14517;DHT22;7344;50.864;4.362;2023-04-01T06:23:13;9.80;99.90
14517;DHT22;7344;50.864;4.362;2023-04-01T06:30:47;9.80;99.90
14517;DHT22;7344;50.864;4.362;2023-04-01T06:36:21;9.80;99.90
14517;DHT22;7344;50.864;4.362;2023-04-01T06:47:10;9.90;99.90
14517;DHT22;7344;50.864;4.362;2023-04-01T06:49:57;9.90;99.90
14517;DHT22;7344;50.864;4.362;2023-04-01T06:57:42;9.90;99.90
14517;DHT22;7344;50.864;4.362;2023-04-01T07:00:32;9.90;99.90
14517;DHT22;7344;50.864;4.362;2023-04-01T07:03:21;10.00;99.90
14517;DHT22;7344;50.864;4.362;2023-04-01T07:05:48;10.00;99.90
14517;DHT22;7344;50.864;4.362;2023-04-01T07:08:20;10.00;99.90
14517;DHT22;7344;50.864;4.362;2023-04-01T07:10:56;10.00;99.90
14517;DHT22;7344;50.864;4.362;2023-04-01T07:13:58;10.00;99.90
14517;DHT22;7344;50.864;4.362;2023-04-01T07:19:08;10.10;99.90
14517;DHT22;7344;50.864;4.362;2023-04-01T07:21:46;10.20;99.90
14517;DHT22;7344;50.864;4.362;2023-04-01T07:24:29;10.20;99.90
14517;DHT22;7344;50.864;4.362;2023-04-01T07:26:57;10.20;99.90
14517;DHT22;7344;50.864;4.362;2023-04-01T07:29:23;10.20;99.90
14517;DHT22;7344;50.864;4.362;2023-04-01T07:34:51;10.20;99.90
14517;DHT22;7344;50.864;4.362;2023-04-01T07:48:54;10.40;99.90
14517;DHT22;7344;50.864;4.362;2023-04-01T07:51:50;10.40;99.90
14517;DHT22;7344;50.864;4.362;2023-04-01T08:05:41;10.30;99.90
14517;DHT22;7344;50.864;4.362;2023-04-01T08:21:57;10.20;99.90
14517;DHT22;7344;50.864;4.362;2023-04-01T08:24:25;10.30;99.90
14517;DHT22;7344;50.864;4.362;2023-04-01T08:26:56;10.20;99.90
14517;DHT22;7344;50.864;4.362;2023-04-01T08:29:36;10.20;99.90
14517;DHT22;7344;50.864;4.362;2023-04-01T08:32:09;10.30;99.90
14517;DHT22;7344;50.864;4.362;2023-04-01T08:34:40;10.40;99.90
14517;DHT22;7344;50.864;4.362;2023-04-01T08:37:12;10.50;99.90
14517;DHT22;7344;50.864;4.362;2023-04-01T08:39:56;10.30;99.90
14517;DHT22;7344;50.864;4.362;2023-04-01T08:45:27;10.50;99.90
14517;DHT22;7344;50.864;4.362;2023-04-01T08:53:47;10.50;99.90
14517;DHT22;7344;50.864;4.362;2023-04-01T08:59:16;10.70;99.90
14517;DHT22;7344;50.864;4.362;2023-04-01T09:04:38;10.60;99.90
14517;DHT22;7344;50.864;4.362;2023-04-01T09:10:18;10.50;99.90
14517;DHT22;7344;50.864;4.362;2023-04-01T09:12:58;10.50;99.90
14517;DHT22;7344;50.864;4.362;2023-04-01T09:26:27;10.70;99.90
14517;DHT22;7344;50.864;4.362;2023-04-01T09:40:47;10.70;99.90
14517;DHT22;7344;50.864;4.362;2023-04-01T09:49:04;10.90;99.90
14517;DHT22;7344;50.864;4.362;2023-04-01T09:52:10;11.00;99.90
14517;DHT22;7344;50.864;4.362;2023-04-01T10:19:55;11.40;99.90
14517;DHT22;7344;50.864;4.362;2023-04-01T10:47:39;12.00;99.90
14517;DHT22;7344;50.864;4.362;2023-04-01T10:50:24;12.20;99.90
14517;DHT22;7344;50.864;4.362;2023-04-01T10:53:10;12.40;99.90
14517;DHT22;7344;50.864;4.362;2023-04-01T11:16:01;11.70;99.90
14517;DHT22;7344;50.864;4.362;2023-04-01T11:27:29;11.90;99.90
14517;DHT22;7344;50.864;4.362;2023-04-01T11:32:44;12.10;99.90
14517;DHT22;7344;50.864;4.362;2023-04-01T11:35:26;12.10;99.90
14517;DHT22;7344;50.864;4.362;2023-04-01T11:46:23;12.00;99.90
14517;DHT22;7344;50.864;4.362;2023-04-01T12:05:20;12.60;99.90
14517;DHT22;7344;50.864;4.362;2023-04-01T12:11:09;12.30;99.90
14517;DHT22;7344;50.864;4.362;2023-04-01T12:16:59;12.20;99.90
14517;DHT22;7344;50.864;4.362;2023-04-01T12:19:56;12.20;99.90
14517;DHT22;7344;50.864;4.362;2023-04-01T12:33:48;11.90;99.90
14517;DHT22;7344;50.864;4.362;2023-04-01T12:42:05;11.60;99.90
14517;DHT22;7344;50.864;4.362;2023-04-01T12:44:34;11.60;99.90
14517;DHT22;7344;50.864;4.362;2023-04-01T12:47:22;11.50;99.90
14517;DHT22;7344;50.864;4.362;2023-04-01T13:09:04;11.20;99.90
14517;DHT22;7344;50.864;4.362;2023-04-01T13:14:57;11.20;99.90
14517;DHT22;7344;50.864;4.362;2023-04-01T13:17:49;11.40;99.90
14517;DHT22;7344;50.864;4.362;2023-04-01T13:34:51;11.30;99.90
14517;DHT22;7344;50.864;4.362;2023-04-01T13:43:01;11.60;99.90
14517;DHT22;7344;50.864;4.362;2023-04-01T13:53:51;11.60;99.90
14517;DHT22;7344;50.864;4.362;2023-04-01T14:07:06;11.90;99.90
14517;DHT22;7344;50.864;4.362;2023-04-01T14:12:27;11.70;99.90
14517;DHT22;7344;50.864;4.362;2023-04-01T14:23:55;12.10;99.90
14517;DHT22;7344;50.864;4.362;2023-04-01T14:32:02;12.10;99.90
14517;DHT22;7344;50.864;4.362;2023-04-01T14:34:48;11.90;99.90
14517;DHT22;7344;50.864;4.362;2023-04-01T14:37:38;11.80;99.90
14517;DHT22;7344;50.864;4.362;2023-04-01T14:41:00;11.80;99.90
14517;DHT22;7344;50.864;4.362;2023-04-01T14:43:32;11.80;99.90
14517;DHT22;7344;50.864;4.362;2023-04-01T14:51:16;11.60;99.90
14517;DHT22;7344;50.864;4.362;2023-04-01T14:54:20;11.70;99.90
14517;DHT22;7344;50.864;4.362;2023-04-01T14:57:03;11.90;99.90
14517;DHT22;7344;50.864;4.362;2023-04-01T14:59:30;11.90;99.90
14517;DHT22;7344;50.864;4.362;2023-04-01T15:04:56;12.00;99.90
14517;DHT22;7344;50.864;4.362;2023-04-01T15:19:14;11.40;99.90
14517;DHT22;7344;50.864;4.362;2023-04-01T15:30:00;11.50;99.90
14517;DHT22;7344;50.864;4.362;2023-04-01T15:32:45;11.60;99.90
14517;DHT22;7344;50.864;4.362;2023-04-01T15:40:56;11.60;99.90
14517;DHT22;7344;50.864;4.362;2023-04-01T15:43:46;11.60;99.90
14517;DHT22;7344;50.864;4.362;2023-04-01T15:55:00;10.90;99.90
14517;DHT22;7344;50.864;4.362;2023-04-01T15:58:05;10.90;99.90
14517;DHT22;7344;50.864;4.362;2023-04-01T16:00:49;10.80;99.90
14517;DHT22;7344;50.864;4.362;2023-04-01T16:03:37;10.80;99.90
14517;DHT22;7344;50.864;4.362;2023-04-01T16:09:09;10.70;99.90
14517;DHT22;7344;50.864;4.362;2023-04-01T16:14:33;10.60;99.90
14517;DHT22;7344;50.864;4.362;2023-04-01T16:17:53;10.60;99.90
14517;DHT22;7344;50.864;4.362;2023-04-01T16:20:24;10.50;99.90
14517;DHT22;7344;50.864;4.362;2023-04-01T16:23:18;10.40;99.90
14517;DHT22;7344;50.864;4.362;2023-04-01T16:25:54;10.40;99.90
14517;DHT22;7344;50.864;4.362;2023-04-01T16:28:36;10.40;99.90
14517;DHT22;7344;50.864;4.362;2023-04-01T16:31:14;10.40;99.90
14517;DHT22;7344;50.864;4.362;2023-04-01T16:37:00;10.40;99.90
14517;DHT22;7344;50.864;4.362;2023-04-01T16:42:07;10.60;99.90
14517;DHT22;7344;50.864;4.362;2023-04-01T16:47:35;10.50;99.90
14517;DHT22;7344;50.864;4.362;2023-04-01T16:50:22;10.60;99.90
14517;DHT22;7344;50.864;4.362;2023-04-01T16:53:09;10.60;99.90
14517;DHT22;7344;50.864;4.362;2023-04-01T16:56:03;10.70;99.90
14517;DHT22;7344;50.864;4.362;2023-04-01T16:58:36;10.70;99.90
14517;DHT22;7344;50.864;4.362;2023-04-01T17:01:13;10.70;99.90
14517;DHT22;7344;50.864;4.362;2023-04-01T17:03:46;10.60;99.90
14517;DHT22;7344;50.864;4.362;2023-04-01T17:06:18;10.60;99.90
14517;DHT22;7344;50.864;4.362;2023-04-01T17:09:24;10.50;99.90
14517;DHT22;7344;50.864;4.362;2023-04-01T17:12:03;10.40;99.90
14517;DHT22;7344;50.864;4.362;2023-04-01T17:22:33;10.40;99.90
14517;DHT22;7344;50.864;4.362;2023-04-01T17:27:44;10.30;99.90
14517;DHT22;7344;50.864;4.362;2023-04-01T17:43:22;10.30;99.90
14517;DHT22;7344;50.864;4.362;2023-04-01T17:45:57;10.40;99.90
14517;DHT22;7344;50.864;4.362;2023-04-01T18:19:08;10.30;99.90
14517;DHT22;7344;50.864;4.362;2023-04-01T18:22:26;10.30;99.90
14517;DHT22;7344;50.864;4.362;2023-04-01T18:25:02;10.30;99.90
14517;DHT22;7344;50.864;4.362;2023-04-01T18:27:36;10.20;99.90
14517;DHT22;7344;50.864;4.362;2023-04-01T18:30:15;10.20;99.90
14517;DHT22;7344;50.864;4.362;2023-04-01T18:40:36;10.30;99.90
14517;DHT22;7344;50.864;4.362;2023-04-01T18:53:39;10.10;99.90
14517;DHT22;7344;50.864;4.362;2023-04-01T18:56:10;10.10;99.90
14517;DHT22;7344;50.864;4.362;2023-04-01T19:01:25;10.10;99.90
14517;DHT22;7344;50.864;4.362;2023-04-01T19:04:18;10.00;99.90
14517;DHT22;7344;50.864;4.362;2023-04-01T19:06:50;10.00;99.90
14517;DHT22;7344;50.864;4.362;2023-04-01T19:09:22;9.90;99.90
14517;DHT22;7344;50.864;4.362;2023-04-01T19:12:18;9.90;99.90
14517;DHT22;7344;50.864;4.362;2023-04-01T19:15:13;9.80;99.90
14517;DHT22;7344;50.864;4.362;2023-04-01T19:17:48;9.80;99.90
14517;DHT22;7344;50.864;4.362;2023-04-01T19:20:32;9.80;99.90
14517;DHT22;7344;50.864;4.362;2023-04-01T19:23:31;9.80;99.90
14517;DHT22;7344;50.864;4.362;2023-04-01T19:37:11;9.80;99.90
14517;DHT22;7344;50.864;4.362;2023-04-01T19:42:32;9.70;99.90
14517;DHT22;7344;50.864;4.362;2023-04-01T19:47:54;9.70;99.90
14517;DHT22;7344;50.864;4.362;2023-04-01T19:50:37;9.70;99.90
14517;DHT22;7344;50.864;4.362;2023-04-01T19:53:32;9.70;99.90
14517;DHT22;7344;50.864;4.362;2023-04-01T19:56:19;9.80;99.90
14517;DHT22;7344;50.864;4.362;2023-04-01T20:04:42;9.70;99.90
14517;DHT22;7344;50.864;4.362;2023-04-01T20:13:05;9.70;99.90
14517;DHT22;7344;50.864;4.362;2023-04-01T20:15:37;9.70;99.90
14517;DHT22;7344;50.864;4.362;2023-04-01T20:18:15;9.70;99.90
14517;DHT22;7344;50.864;4.362;2023-04-01T20:20:57;9.70;99.90
14517;DHT22;7344;50.864;4.362;2023-04-01T20:26:29;9.80;99.90
14517;DHT22;7344;50.864;4.362;2023-04-01T20:51:07;9.80;99.90
14517;DHT22;7344;50.864;4.362;2023-04-01T20:53:51;9.80;99.90
14517;DHT22;7344;50.864;4.362;2023-04-01T20:56:31;9.80;99.90
14517;DHT22;7344;50.864;4.362;2023-04-01T21:01:51;9.90;99.90
14517;DHT22;7344;50.864;4.362;2023-04-01T21:07:54;9.90;99.90
14517;DHT22;7344;50.864;4.362;2023-04-01T21:12:47;9.90;99.90
14517;DHT22;7344;50.864;4.362;2023-04-01T21:20:49;10.00;99.90
14517;DHT22;7344;50.864;4.362;2023-04-01T21:26:23;10.00;99.90
14517;DHT22;7344;50.864;4.362;2023-04-01T21:29:07;10.00;99.90
14517;DHT22;7344;50.864;4.362;2023-04-01T21:40:31;10.00;99.90
14517;DHT22;7344;50.864;4.362;2023-04-01T21:43:14;10.00;99.90
14517;DHT22;7344;50.864;4.362;2023-04-01T21:45:46;10.00;99.90
14517;DHT22;7344;50.864;4.362;2023-04-01T21:48:33;10.10;99.90
14517;DHT22;7344;50.864;4.362;2023-04-01T22:00:07;10.20;99.90
14517;DHT22;7344;50.864;4.362;2023-04-01T22:05:51;10.10;99.90
14517;DHT22;7344;50.864;4.362;2023-04-01T22:16:47;10.20;99.90
14517;DHT22;7344;50.864;4.362;2023-04-01T22:32:44;10.10;99.90
14517;DHT22;7344;50.864;4.362;2023-04-01T22:43:43;10.00;99.90
14517;DHT22;7344;50.864;4.362;2023-04-01T22:49:04;10.00;99.90
14517;DHT22;7344;50.864;4.362;2023-04-01T22:51:52;10.00;99.90
14517;DHT22;7344;50.864;4.362;2023-04-01T22:54:22;10.00;99.90
14517;DHT22;7344;50.864;4.362;2023-04-01T23:02:23;9.90;99.90
14517;DHT22;7344;50.864;4.362;2023-04-01T23:04:55;9.90;99.90
14517;DHT22;7344;50.864;4.362;2023-04-01T23:09:48;10.00;99.90
14517;DHT22;7344;50.864;4.362;2023-04-01T23:12:15;10.00;99.90
14517;DHT22;7344;50.864;4.362;2023-04-01T23:14:46;9.80;99.90
14517;DHT22;7344;50.864;4.362;2023-04-01T23:17:45;9.90;99.90
14517;DHT22;7344;50.864;4.362;2023-04-01T23:33:21;9.60;99.90
14517;DHT22;7344;50.864;4.362;2023-04-01T23:38:18;9.70;99.90
14517;DHT22;7344;50.864;4.362;2023-04-01T23:40:47;9.70;99.90
14517;DHT22;7344;50.864;4.362;2023-04-01T23:43:30;9.70;99.90
14517;DHT22;7344;50.864;4.362;2023-04-01T23:45:58;9.60;99.90
14517;DHT22;7344;50.864;4.362;2023-04-01T23:48:32;9.70;99.90
14517;DHT22;7344;50.864;4.362;2023-04-01T23:50:58;9.70;99.90
14517;DHT22;7344;50.864;4.362;2023-04-01T23:53:26;9.70;99.90
14517;DHT22;7344;50.864;4.362;2023-04-01T23:55:54;9.70;99.90
14517;DHT22;7344;50.864;4.362;2023-04-01T23:58:25;9.70;99.90
